sensor_id;sensor_type;location;lat;lon;timestamp;P1;durP1;ratioP1;P2;durP2;ratioP2
81903;SDS011;71370;-33.792;151.032;2023-07-16T00:00:21;10.50;;;1.80;;
81903;SDS011;71370;-33.792;151.032;2023-07-16T00:01:28;5.50;;;1.60;;
81903;SDS011;71370;-33.792;151.032;2023-07-16T00:02:38;9.50;;;1.70;;
81903;SDS011;71370;-33.792;151.032;2023-07-16T00:03:45;8.40;;;2.00;;
81903;SDS011;71370;-33.792;151.032;2023-07-16T00:04:52;8.40;;;2.40;;
81903;SDS011;71370;-33.792;151.032;2023-07-16T00:05:59;6.60;;;1.90;;
81903;SDS011;71370;-33.792;151.032;2023-07-16T00:07:06;8.00;;;1.90;;
81903;SDS011;71370;-33.792;151.032;2023-07-16T00:08:14;9.10;;;2.50;;
81903;SDS011;71370;-33.792;151.032;2023-07-16T00:09:21;6.20;;;2.60;;
81903;SDS011;71370;-33.792;151.032;2023-07-16T00:10:29;8.60;;;2.40;;
81903;SDS011;71370;-33.792;151.032;2023-07-16T00:11:38;7.90;;;1.70;;
81903;SDS011;71370;-33.792;151.032;2023-07-16T00:12:46;6.60;;;2.00;;
81903;SDS011;71370;-33.792;151.032;2023-07-16T00:13:53;8.90;;;2.10;;
81903;SDS011;71370;-33.792;151.032;2023-07-16T00:15:00;8.70;;;2.90;;
81903;SDS011;71370;-33.792;151.032;2023-07-16T00:16:07;7.20;;;2.00;;
81903;SDS011;71370;-33.792;151.032;2023-07-16T00:17:14;7.80;;;2.10;;
81903;SDS011;71370;-33.792;151.032;2023-07-16T00:18:22;9.50;;;2.60;;
81903;SDS011;71370;-33.792;151.032;2023-07-16T00:19:29;7.20;;;2.00;;
81903;SDS011;71370;-33.792;151.032;2023-07-16T00:20:36;7.40;;;2.20;;
81903;SDS011;71370;-33.792;151.032;2023-07-16T00:21:43;7.90;;;2.30;;
81903;SDS011;71370;-33.792;151.032;2023-07-16T00:22:50;6.80;;;2.30;;
81903;SDS011;71370;-33.792;151.032;2023-07-16T00:23:58;7.40;;;2.60;;
81903;SDS011;71370;-33.792;151.032;2023-07-16T00:25:06;6.90;;;3.00;;
81903;SDS011;71370;-33.792;151.032;2023-07-16T00:26:13;7.80;;;2.80;;
81903;SDS011;71370;-33.792;151.032;2023-07-16T00:27:20;6.70;;;3.40;;
81903;SDS011;71370;-33.792;151.032;2023-07-16T00:28:28;8.10;;;3.30;;
81903;SDS011;71370;-33.792;151.032;2023-07-16T00:29:35;8.10;;;3.20;;
81903;SDS011;71370;-33.792;151.032;2023-07-16T00:30:43;5.50;;;2.70;;
81903;SDS011;71370;-33.792;151.032;2023-07-16T00:31:50;7.10;;;2.90;;
81903;SDS011;71370;-33.792;151.032;2023-07-16T00:32:57;6.20;;;2.90;;
81903;SDS011;71370;-33.792;151.032;2023-07-16T00:34:04;7.70;;;3.20;;
81903;SDS011;71370;-33.792;151.032;2023-07-16T00:35:12;9.50;;;3.70;;
81903;SDS011;71370;-33.792;151.032;2023-07-16T00:36:19;8.10;;;2.80;;
81903;SDS011;71370;-33.792;151.032;2023-07-16T00:37:27;7.50;;;2.80;;
81903;SDS011;71370;-33.792;151.032;2023-07-16T00:38:34;7.60;;;2.70;;
81903;SDS011;71370;-33.792;151.032;2023-07-16T00:39:41;5.30;;;2.80;;
81903;SDS011;71370;-33.792;151.032;2023-07-16T00:40:48;8.10;;;3.20;;
81903;SDS011;71370;-33.792;151.032;2023-07-16T00:41:56;7.90;;;3.30;;
81903;SDS011;71370;-33.792;151.032;2023-07-16T00:43:03;7.50;;;3.30;;
81903;SDS011;71370;-33.792;151.032;2023-07-16T00:44:10;7.10;;;3.60;;
81903;SDS011;71370;-33.792;151.032;2023-07-16T00:45:17;9.60;;;3.90;;
81903;SDS011;71370;-33.792;151.032;2023-07-16T00:46:24;7.20;;;3.40;;
81903;SDS011;71370;-33.792;151.032;2023-07-16T00:47:31;7.50;;;3.20;;
81903;SDS011;71370;-33.792;151.032;2023-07-16T00:48:40;8.50;;;2.90;;
81903;SDS011;71370;-33.792;151.032;2023-07-16T00:49:47;7.90;;;3.00;;
81903;SDS011;71370;-33.792;151.032;2023-07-16T00:50:55;6.30;;;2.90;;
81903;SDS011;71370;-33.792;151.032;2023-07-16T00:52:02;8.30;;;3.50;;
81903;SDS011;71370;-33.792;151.032;2023-07-16T00:53:11;7.90;;;3.40;;
81903;SDS011;71370;-33.792;151.032;2023-07-16T00:54:19;7.10;;;3.70;;
81903;SDS011;71370;-33.792;151.032;2023-07-16T00:55:28;8.10;;;3.10;;
81903;SDS011;71370;-33.792;151.032;2023-07-16T00:56:36;8.70;;;3.70;;
81903;SDS011;71370;-33.792;151.032;2023-07-16T00:57:44;7.10;;;3.30;;
81903;SDS011;71370;-33.792;151.032;2023-07-16T00:58:52;7.50;;;4.00;;
81903;SDS011;71370;-33.792;151.032;2023-07-16T01:00:00;8.60;;;2.80;;
81903;SDS011;71370;-33.792;151.032;2023-07-16T01:01:07;5.90;;;3.10;;
81903;SDS011;71370;-33.792;151.032;2023-07-16T01:02:14;7.00;;;3.10;;
81903;SDS011;71370;-33.792;151.032;2023-07-16T01:03:21;8.00;;;3.30;;
81903;SDS011;71370;-33.792;151.032;2023-07-16T01:04:28;7.40;;;3.00;;
81903;SDS011;71370;-33.792;151.032;2023-07-16T01:05:38;11.20;;;3.50;;
81903;SDS011;71370;-33.792;151.032;2023-07-16T01:06:48;8.70;;;3.90;;
81903;SDS011;71370;-33.792;151.032;2023-07-16T01:08:00;5.80;;;2.70;;
81903;SDS011;71370;-33.792;151.032;2023-07-16T01:09:11;8.30;;;2.90;;
81903;SDS011;71370;-33.792;151.032;2023-07-16T01:10:25;6.90;;;3.40;;
81903;SDS011;71370;-33.792;151.032;2023-07-16T01:11:34;6.10;;;3.00;;
81903;SDS011;71370;-33.792;151.032;2023-07-16T01:12:42;8.20;;;3.00;;
81903;SDS011;71370;-33.792;151.032;2023-07-16T01:13:50;7.40;;;3.20;;
81903;SDS011;71370;-33.792;151.032;2023-07-16T01:14:58;8.10;;;3.60;;
81903;SDS011;71370;-33.792;151.032;2023-07-16T01:16:06;7.00;;;3.30;;
81903;SDS011;71370;-33.792;151.032;2023-07-16T01:17:24;7.70;;;3.30;;
81903;SDS011;71370;-33.792;151.032;2023-07-16T01:18:31;7.70;;;2.90;;
81903;SDS011;71370;-33.792;151.032;2023-07-16T01:19:39;8.40;;;3.20;;
81903;SDS011;71370;-33.792;151.032;2023-07-16T01:20:46;7.90;;;2.90;;
81903;SDS011;71370;-33.792;151.032;2023-07-16T01:22:16;11.40;;;3.10;;
81903;SDS011;71370;-33.792;151.032;2023-07-16T01:25:36;7.00;;;3.20;;
81903;SDS011;71370;-33.792;151.032;2023-07-16T01:30:04;7.80;;;3.00;;
81903;SDS011;71370;-33.792;151.032;2023-07-16T01:31:15;7.30;;;2.80;;
81903;SDS011;71370;-33.792;151.032;2023-07-16T01:32:23;11.50;;;3.50;;
81903;SDS011;71370;-33.792;151.032;2023-07-16T01:33:31;8.20;;;3.60;;
81903;SDS011;71370;-33.792;151.032;2023-07-16T01:34:39;9.80;;;2.50;;
81903;SDS011;71370;-33.792;151.032;2023-07-16T01:35:47;8.00;;;3.70;;
81903;SDS011;71370;-33.792;151.032;2023-07-16T01:36:56;8.00;;;3.00;;
81903;SDS011;71370;-33.792;151.032;2023-07-16T01:38:03;8.40;;;2.80;;
81903;SDS011;71370;-33.792;151.032;2023-07-16T01:39:11;11.20;;;4.90;;
81903;SDS011;71370;-33.792;151.032;2023-07-16T01:40:18;6.90;;;3.90;;
81903;SDS011;71370;-33.792;151.032;2023-07-16T01:41:26;10.70;;;3.80;;
81903;SDS011;71370;-33.792;151.032;2023-07-16T01:42:33;7.30;;;3.70;;
81903;SDS011;71370;-33.792;151.032;2023-07-16T01:43:40;9.00;;;3.10;;
81903;SDS011;71370;-33.792;151.032;2023-07-16T01:44:48;6.60;;;2.90;;
81903;SDS011;71370;-33.792;151.032;2023-07-16T01:45:55;8.10;;;3.50;;
81903;SDS011;71370;-33.792;151.032;2023-07-16T01:47:07;6.20;;;2.50;;
81903;SDS011;71370;-33.792;151.032;2023-07-16T01:48:32;9.40;;;3.10;;
81903;SDS011;71370;-33.792;151.032;2023-07-16T01:49:41;10.80;;;3.10;;
81903;SDS011;71370;-33.792;151.032;2023-07-16T01:50:48;7.60;;;2.90;;
81903;SDS011;71370;-33.792;151.032;2023-07-16T01:51:56;7.40;;;3.30;;
81903;SDS011;71370;-33.792;151.032;2023-07-16T01:53:03;11.90;;;2.80;;
81903;SDS011;71370;-33.792;151.032;2023-07-16T01:54:10;6.60;;;3.10;;
81903;SDS011;71370;-33.792;151.032;2023-07-16T01:55:17;8.90;;;3.60;;
81903;SDS011;71370;-33.792;151.032;2023-07-16T01:56:24;8.30;;;3.20;;
81903;SDS011;71370;-33.792;151.032;2023-07-16T01:57:31;7.10;;;2.70;;
81903;SDS011;71370;-33.792;151.032;2023-07-16T01:58:38;8.90;;;2.60;;
81903;SDS011;71370;-33.792;151.032;2023-07-16T01:59:45;8.40;;;2.70;;
81903;SDS011;71370;-33.792;151.032;2023-07-16T02:00:52;5.60;;;2.30;;
81903;SDS011;71370;-33.792;151.032;2023-07-16T02:01:59;10.20;;;2.50;;
81903;SDS011;71370;-33.792;151.032;2023-07-16T02:03:06;6.70;;;2.70;;
81903;SDS011;71370;-33.792;151.032;2023-07-16T02:04:13;6.60;;;2.70;;
81903;SDS011;71370;-33.792;151.032;2023-07-16T02:05:20;8.30;;;2.70;;
81903;SDS011;71370;-33.792;151.032;2023-07-16T02:06:27;9.70;;;2.90;;
81903;SDS011;71370;-33.792;151.032;2023-07-16T02:07:35;7.70;;;2.30;;
81903;SDS011;71370;-33.792;151.032;2023-07-16T02:08:42;7.90;;;2.40;;
81903;SDS011;71370;-33.792;151.032;2023-07-16T02:09:49;8.20;;;2.80;;
81903;SDS011;71370;-33.792;151.032;2023-07-16T02:10:56;9.80;;;2.70;;
81903;SDS011;71370;-33.792;151.032;2023-07-16T02:12:03;5.90;;;2.30;;
81903;SDS011;71370;-33.792;151.032;2023-07-16T02:13:10;7.80;;;2.20;;
81903;SDS011;71370;-33.792;151.032;2023-07-16T02:14:17;7.60;;;2.50;;
81903;SDS011;71370;-33.792;151.032;2023-07-16T02:15:24;7.10;;;2.20;;
81903;SDS011;71370;-33.792;151.032;2023-07-16T02:16:31;8.40;;;2.80;;
81903;SDS011;71370;-33.792;151.032;2023-07-16T02:17:38;9.10;;;2.30;;
81903;SDS011;71370;-33.792;151.032;2023-07-16T02:18:45;7.80;;;2.50;;
81903;SDS011;71370;-33.792;151.032;2023-07-16T02:19:52;8.00;;;2.40;;
81903;SDS011;71370;-33.792;151.032;2023-07-16T02:20:59;10.40;;;2.60;;
81903;SDS011;71370;-33.792;151.032;2023-07-16T02:22:07;7.40;;;2.30;;
81903;SDS011;71370;-33.792;151.032;2023-07-16T02:23:14;7.80;;;1.90;;
81903;SDS011;71370;-33.792;151.032;2023-07-16T02:24:21;8.50;;;3.10;;
81903;SDS011;71370;-33.792;151.032;2023-07-16T02:25:29;7.90;;;2.90;;
81903;SDS011;71370;-33.792;151.032;2023-07-16T02:26:36;10.30;;;2.80;;
81903;SDS011;71370;-33.792;151.032;2023-07-16T02:27:43;8.80;;;2.80;;
81903;SDS011;71370;-33.792;151.032;2023-07-16T02:28:50;9.90;;;2.80;;
81903;SDS011;71370;-33.792;151.032;2023-07-16T02:29:57;8.40;;;2.70;;
81903;SDS011;71370;-33.792;151.032;2023-07-16T02:31:04;10.80;;;2.90;;
81903;SDS011;71370;-33.792;151.032;2023-07-16T02:32:11;9.20;;;2.30;;
81903;SDS011;71370;-33.792;151.032;2023-07-16T02:33:18;8.90;;;2.80;;
81903;SDS011;71370;-33.792;151.032;2023-07-16T02:34:25;7.60;;;2.60;;
81903;SDS011;71370;-33.792;151.032;2023-07-16T02:35:32;6.80;;;2.30;;
81903;SDS011;71370;-33.792;151.032;2023-07-16T02:36:39;8.40;;;2.50;;
81903;SDS011;71370;-33.792;151.032;2023-07-16T02:37:47;10.10;;;2.40;;
81903;SDS011;71370;-33.792;151.032;2023-07-16T02:38:54;9.60;;;2.60;;
81903;SDS011;71370;-33.792;151.032;2023-07-16T02:40:01;7.20;;;2.30;;
81903;SDS011;71370;-33.792;151.032;2023-07-16T02:41:08;9.20;;;2.90;;
81903;SDS011;71370;-33.792;151.032;2023-07-16T02:42:15;10.70;;;2.60;;
81903;SDS011;71370;-33.792;151.032;2023-07-16T02:43:22;8.70;;;2.20;;
81903;SDS011;71370;-33.792;151.032;2023-07-16T02:44:29;11.10;;;2.80;;
81903;SDS011;71370;-33.792;151.032;2023-07-16T02:45:36;8.00;;;2.90;;
81903;SDS011;71370;-33.792;151.032;2023-07-16T02:46:43;7.30;;;3.10;;
81903;SDS011;71370;-33.792;151.032;2023-07-16T02:47:50;7.80;;;2.00;;
81903;SDS011;71370;-33.792;151.032;2023-07-16T02:48:57;7.00;;;2.20;;
81903;SDS011;71370;-33.792;151.032;2023-07-16T02:50:05;8.00;;;2.60;;
81903;SDS011;71370;-33.792;151.032;2023-07-16T02:51:12;9.10;;;2.80;;
81903;SDS011;71370;-33.792;151.032;2023-07-16T02:52:19;7.80;;;3.30;;
81903;SDS011;71370;-33.792;151.032;2023-07-16T02:53:26;7.80;;;2.70;;
81903;SDS011;71370;-33.792;151.032;2023-07-16T02:54:36;11.10;;;3.10;;
81903;SDS011;71370;-33.792;151.032;2023-07-16T02:55:45;12.00;;;2.80;;
81903;SDS011;71370;-33.792;151.032;2023-07-16T02:56:52;8.50;;;2.30;;
81903;SDS011;71370;-33.792;151.032;2023-07-16T02:57:59;8.20;;;2.20;;
81903;SDS011;71370;-33.792;151.032;2023-07-16T02:59:10;7.10;;;2.70;;
81903;SDS011;71370;-33.792;151.032;2023-07-16T03:00:17;7.60;;;2.70;;
81903;SDS011;71370;-33.792;151.032;2023-07-16T03:01:24;9.00;;;3.20;;
81903;SDS011;71370;-33.792;151.032;2023-07-16T03:02:32;8.10;;;2.30;;
81903;SDS011;71370;-33.792;151.032;2023-07-16T03:03:39;8.00;;;2.70;;
81903;SDS011;71370;-33.792;151.032;2023-07-16T03:04:46;8.60;;;2.90;;
81903;SDS011;71370;-33.792;151.032;2023-07-16T03:05:53;9.00;;;2.60;;
81903;SDS011;71370;-33.792;151.032;2023-07-16T03:07:00;8.70;;;2.10;;
81903;SDS011;71370;-33.792;151.032;2023-07-16T03:08:07;6.70;;;2.50;;
81903;SDS011;71370;-33.792;151.032;2023-07-16T03:09:14;6.70;;;1.90;;
81903;SDS011;71370;-33.792;151.032;2023-07-16T03:10:21;8.80;;;2.30;;
81903;SDS011;71370;-33.792;151.032;2023-07-16T03:11:28;7.60;;;2.30;;
81903;SDS011;71370;-33.792;151.032;2023-07-16T03:12:36;9.10;;;1.90;;
81903;SDS011;71370;-33.792;151.032;2023-07-16T03:13:43;8.70;;;2.60;;
81903;SDS011;71370;-33.792;151.032;2023-07-16T03:14:50;8.30;;;1.90;;
81903;SDS011;71370;-33.792;151.032;2023-07-16T03:15:59;6.90;;;1.70;;
81903;SDS011;71370;-33.792;151.032;2023-07-16T03:17:06;8.30;;;1.60;;
81903;SDS011;71370;-33.792;151.032;2023-07-16T03:18:13;8.20;;;1.70;;
81903;SDS011;71370;-33.792;151.032;2023-07-16T03:19:22;10.00;;;2.10;;
81903;SDS011;71370;-33.792;151.032;2023-07-16T03:20:29;6.80;;;2.10;;
81903;SDS011;71370;-33.792;151.032;2023-07-16T03:21:37;8.50;;;1.90;;
81903;SDS011;71370;-33.792;151.032;2023-07-16T03:22:43;6.30;;;1.90;;
81903;SDS011;71370;-33.792;151.032;2023-07-16T03:23:50;6.20;;;1.70;;
81903;SDS011;71370;-33.792;151.032;2023-07-16T03:24:58;7.20;;;2.50;;
81903;SDS011;71370;-33.792;151.032;2023-07-16T03:26:05;6.80;;;2.20;;
81903;SDS011;71370;-33.792;151.032;2023-07-16T03:27:12;8.60;;;2.10;;
81903;SDS011;71370;-33.792;151.032;2023-07-16T03:28:19;8.30;;;2.00;;
81903;SDS011;71370;-33.792;151.032;2023-07-16T03:29:26;6.60;;;1.60;;
81903;SDS011;71370;-33.792;151.032;2023-07-16T03:30:33;10.00;;;5.30;;
81903;SDS011;71370;-33.792;151.032;2023-07-16T03:31:40;8.80;;;3.50;;
81903;SDS011;71370;-33.792;151.032;2023-07-16T03:32:47;10.00;;;4.60;;
81903;SDS011;71370;-33.792;151.032;2023-07-16T03:33:54;6.90;;;1.30;;
81903;SDS011;71370;-33.792;151.032;2023-07-16T03:35:01;3.90;;;0.90;;
81903;SDS011;71370;-33.792;151.032;2023-07-16T03:36:09;5.20;;;1.40;;
81903;SDS011;71370;-33.792;151.032;2023-07-16T03:37:16;3.80;;;0.90;;
81903;SDS011;71370;-33.792;151.032;2023-07-16T03:38:23;2.90;;;0.70;;
81903;SDS011;71370;-33.792;151.032;2023-07-16T03:39:30;2.70;;;0.50;;
81903;SDS011;71370;-33.792;151.032;2023-07-16T03:40:37;2.70;;;0.50;;
81903;SDS011;71370;-33.792;151.032;2023-07-16T03:41:44;1.90;;;0.40;;
81903;SDS011;71370;-33.792;151.032;2023-07-16T03:42:52;2.70;;;0.60;;
81903;SDS011;71370;-33.792;151.032;2023-07-16T03:43:59;4.40;;;0.90;;
81903;SDS011;71370;-33.792;151.032;2023-07-16T03:45:06;3.00;;;0.60;;
81903;SDS011;71370;-33.792;151.032;2023-07-16T03:46:15;4.60;;;0.60;;
81903;SDS011;71370;-33.792;151.032;2023-07-16T03:47:22;1.90;;;0.50;;
81903;SDS011;71370;-33.792;151.032;2023-07-16T03:48:29;2.20;;;0.30;;
81903;SDS011;71370;-33.792;151.032;2023-07-16T03:49:36;4.40;;;0.60;;
81903;SDS011;71370;-33.792;151.032;2023-07-16T03:50:44;2.60;;;0.50;;
81903;SDS011;71370;-33.792;151.032;2023-07-16T03:51:52;2.80;;;1.00;;
81903;SDS011;71370;-33.792;151.032;2023-07-16T03:52:59;5.20;;;1.20;;
81903;SDS011;71370;-33.792;151.032;2023-07-16T03:54:06;2.90;;;0.70;;
81903;SDS011;71370;-33.792;151.032;2023-07-16T03:55:14;4.30;;;0.90;;
81903;SDS011;71370;-33.792;151.032;2023-07-16T03:56:21;4.00;;;0.80;;
81903;SDS011;71370;-33.792;151.032;2023-07-16T03:57:28;6.30;;;1.10;;
81903;SDS011;71370;-33.792;151.032;2023-07-16T03:58:36;4.30;;;0.90;;
81903;SDS011;71370;-33.792;151.032;2023-07-16T03:59:43;4.60;;;1.00;;
81903;SDS011;71370;-33.792;151.032;2023-07-16T04:00:50;3.20;;;1.00;;
81903;SDS011;71370;-33.792;151.032;2023-07-16T04:01:57;4.30;;;0.70;;
81903;SDS011;71370;-33.792;151.032;2023-07-16T04:03:04;5.70;;;1.10;;
81903;SDS011;71370;-33.792;151.032;2023-07-16T04:04:11;4.00;;;1.00;;
81903;SDS011;71370;-33.792;151.032;2023-07-16T04:05:19;4.30;;;0.70;;
81903;SDS011;71370;-33.792;151.032;2023-07-16T04:06:26;4.20;;;1.20;;
81903;SDS011;71370;-33.792;151.032;2023-07-16T04:07:33;4.00;;;0.80;;
81903;SDS011;71370;-33.792;151.032;2023-07-16T04:08:40;4.60;;;1.30;;
81903;SDS011;71370;-33.792;151.032;2023-07-16T04:09:47;4.80;;;0.80;;
81903;SDS011;71370;-33.792;151.032;2023-07-16T04:10:54;4.70;;;1.00;;
81903;SDS011;71370;-33.792;151.032;2023-07-16T04:12:01;4.00;;;1.20;;
81903;SDS011;71370;-33.792;151.032;2023-07-16T04:13:09;5.10;;;1.00;;
81903;SDS011;71370;-33.792;151.032;2023-07-16T04:14:16;4.00;;;1.30;;
81903;SDS011;71370;-33.792;151.032;2023-07-16T04:15:23;5.20;;;1.10;;
81903;SDS011;71370;-33.792;151.032;2023-07-16T04:16:30;5.00;;;0.90;;
81903;SDS011;71370;-33.792;151.032;2023-07-16T04:17:37;5.80;;;0.90;;
81903;SDS011;71370;-33.792;151.032;2023-07-16T04:18:44;4.80;;;1.40;;
81903;SDS011;71370;-33.792;151.032;2023-07-16T04:19:51;5.50;;;1.30;;
81903;SDS011;71370;-33.792;151.032;2023-07-16T04:20:59;5.30;;;1.30;;
81903;SDS011;71370;-33.792;151.032;2023-07-16T04:22:06;4.40;;;1.50;;
81903;SDS011;71370;-33.792;151.032;2023-07-16T04:23:13;7.00;;;1.80;;
81903;SDS011;71370;-33.792;151.032;2023-07-16T04:24:20;4.80;;;1.40;;
81903;SDS011;71370;-33.792;151.032;2023-07-16T04:25:28;3.50;;;1.30;;
81903;SDS011;71370;-33.792;151.032;2023-07-16T04:26:35;5.30;;;1.70;;
81903;SDS011;71370;-33.792;151.032;2023-07-16T04:27:41;5.80;;;1.30;;
81903;SDS011;71370;-33.792;151.032;2023-07-16T04:28:49;4.80;;;1.10;;
81903;SDS011;71370;-33.792;151.032;2023-07-16T04:29:56;5.20;;;1.80;;
81903;SDS011;71370;-33.792;151.032;2023-07-16T04:31:03;5.20;;;1.10;;
81903;SDS011;71370;-33.792;151.032;2023-07-16T04:32:10;5.90;;;1.00;;
81903;SDS011;71370;-33.792;151.032;2023-07-16T04:33:16;3.90;;;0.90;;
81903;SDS011;71370;-33.792;151.032;2023-07-16T04:34:24;6.40;;;1.70;;
81903;SDS011;71370;-33.792;151.032;2023-07-16T04:35:32;4.80;;;1.20;;
81903;SDS011;71370;-33.792;151.032;2023-07-16T04:36:39;5.10;;;1.40;;
81903;SDS011;71370;-33.792;151.032;2023-07-16T04:37:47;4.60;;;1.10;;
81903;SDS011;71370;-33.792;151.032;2023-07-16T04:38:54;4.90;;;1.10;;
81903;SDS011;71370;-33.792;151.032;2023-07-16T04:40:02;5.40;;;1.00;;
81903;SDS011;71370;-33.792;151.032;2023-07-16T04:41:10;5.10;;;1.50;;
81903;SDS011;71370;-33.792;151.032;2023-07-16T04:42:18;5.90;;;1.00;;
81903;SDS011;71370;-33.792;151.032;2023-07-16T04:43:26;5.00;;;1.30;;
81903;SDS011;71370;-33.792;151.032;2023-07-16T04:44:33;5.70;;;1.00;;
81903;SDS011;71370;-33.792;151.032;2023-07-16T04:45:40;4.80;;;1.10;;
81903;SDS011;71370;-33.792;151.032;2023-07-16T04:46:52;5.50;;;0.70;;
81903;SDS011;71370;-33.792;151.032;2023-07-16T04:47:59;3.90;;;0.80;;
81903;SDS011;71370;-33.792;151.032;2023-07-16T04:49:06;4.50;;;1.00;;
81903;SDS011;71370;-33.792;151.032;2023-07-16T04:50:13;7.70;;;1.40;;
81903;SDS011;71370;-33.792;151.032;2023-07-16T04:51:20;6.20;;;1.00;;
81903;SDS011;71370;-33.792;151.032;2023-07-16T04:52:27;6.90;;;0.90;;
81903;SDS011;71370;-33.792;151.032;2023-07-16T04:53:34;6.30;;;1.20;;
81903;SDS011;71370;-33.792;151.032;2023-07-16T04:54:42;4.70;;;0.80;;
81903;SDS011;71370;-33.792;151.032;2023-07-16T04:55:49;4.90;;;0.70;;
81903;SDS011;71370;-33.792;151.032;2023-07-16T04:56:56;4.40;;;0.70;;
81903;SDS011;71370;-33.792;151.032;2023-07-16T04:58:03;4.90;;;0.90;;
81903;SDS011;71370;-33.792;151.032;2023-07-16T04:59:10;6.50;;;0.90;;
81903;SDS011;71370;-33.792;151.032;2023-07-16T05:00:17;7.10;;;0.80;;
81903;SDS011;71370;-33.792;151.032;2023-07-16T05:01:24;5.00;;;1.00;;
81903;SDS011;71370;-33.792;151.032;2023-07-16T05:02:32;4.30;;;0.90;;
81903;SDS011;71370;-33.792;151.032;2023-07-16T05:03:39;6.60;;;0.90;;
81903;SDS011;71370;-33.792;151.032;2023-07-16T05:04:47;8.40;;;1.40;;
81903;SDS011;71370;-33.792;151.032;2023-07-16T05:05:55;5.60;;;1.20;;
81903;SDS011;71370;-33.792;151.032;2023-07-16T05:07:02;3.80;;;0.70;;
81903;SDS011;71370;-33.792;151.032;2023-07-16T05:08:10;6.10;;;0.80;;
81903;SDS011;71370;-33.792;151.032;2023-07-16T05:09:17;5.20;;;0.80;;
81903;SDS011;71370;-33.792;151.032;2023-07-16T05:10:25;6.20;;;2.10;;
81903;SDS011;71370;-33.792;151.032;2023-07-16T05:11:33;5.60;;;1.00;;
81903;SDS011;71370;-33.792;151.032;2023-07-16T05:12:40;4.10;;;0.70;;
81903;SDS011;71370;-33.792;151.032;2023-07-16T05:13:47;8.20;;;1.40;;
81903;SDS011;71370;-33.792;151.032;2023-07-16T05:14:54;5.10;;;1.20;;
81903;SDS011;71370;-33.792;151.032;2023-07-16T05:16:01;6.50;;;1.20;;
81903;SDS011;71370;-33.792;151.032;2023-07-16T05:17:08;4.60;;;1.30;;
81903;SDS011;71370;-33.792;151.032;2023-07-16T05:18:15;5.10;;;0.80;;
81903;SDS011;71370;-33.792;151.032;2023-07-16T05:19:23;4.10;;;1.30;;
81903;SDS011;71370;-33.792;151.032;2023-07-16T05:20:30;4.50;;;1.00;;
81903;SDS011;71370;-33.792;151.032;2023-07-16T05:21:37;6.20;;;1.00;;
81903;SDS011;71370;-33.792;151.032;2023-07-16T05:22:44;5.20;;;0.90;;
81903;SDS011;71370;-33.792;151.032;2023-07-16T05:23:51;7.30;;;1.80;;
81903;SDS011;71370;-33.792;151.032;2023-07-16T05:24:58;8.10;;;1.20;;
81903;SDS011;71370;-33.792;151.032;2023-07-16T05:26:05;6.90;;;1.10;;
81903;SDS011;71370;-33.792;151.032;2023-07-16T05:27:12;5.70;;;1.20;;
81903;SDS011;71370;-33.792;151.032;2023-07-16T05:28:19;4.70;;;1.20;;
81903;SDS011;71370;-33.792;151.032;2023-07-16T05:29:26;7.50;;;1.10;;
81903;SDS011;71370;-33.792;151.032;2023-07-16T05:30:34;7.10;;;1.10;;
81903;SDS011;71370;-33.792;151.032;2023-07-16T05:31:42;5.40;;;0.90;;
81903;SDS011;71370;-33.792;151.032;2023-07-16T05:32:50;5.20;;;0.90;;
81903;SDS011;71370;-33.792;151.032;2023-07-16T05:33:56;5.70;;;1.70;;
81903;SDS011;71370;-33.792;151.032;2023-07-16T05:35:04;4.90;;;1.50;;
81903;SDS011;71370;-33.792;151.032;2023-07-16T05:36:11;5.80;;;0.90;;
81903;SDS011;71370;-33.792;151.032;2023-07-16T05:37:18;6.60;;;1.20;;
81903;SDS011;71370;-33.792;151.032;2023-07-16T05:38:25;5.90;;;1.00;;
81903;SDS011;71370;-33.792;151.032;2023-07-16T05:39:32;5.50;;;1.30;;
81903;SDS011;71370;-33.792;151.032;2023-07-16T05:40:39;6.70;;;1.40;;
81903;SDS011;71370;-33.792;151.032;2023-07-16T05:41:46;4.10;;;1.30;;
81903;SDS011;71370;-33.792;151.032;2023-07-16T05:42:54;3.20;;;1.00;;
81903;SDS011;71370;-33.792;151.032;2023-07-16T05:44:01;5.50;;;1.60;;
81903;SDS011;71370;-33.792;151.032;2023-07-16T05:45:08;7.90;;;1.40;;
81903;SDS011;71370;-33.792;151.032;2023-07-16T05:46:16;4.70;;;1.40;;
81903;SDS011;71370;-33.792;151.032;2023-07-16T05:47:23;3.80;;;1.20;;
81903;SDS011;71370;-33.792;151.032;2023-07-16T05:48:30;5.80;;;0.90;;
81903;SDS011;71370;-33.792;151.032;2023-07-16T05:49:37;4.70;;;1.00;;
81903;SDS011;71370;-33.792;151.032;2023-07-16T05:50:44;5.70;;;0.80;;
81903;SDS011;71370;-33.792;151.032;2023-07-16T05:51:51;4.10;;;0.90;;
81903;SDS011;71370;-33.792;151.032;2023-07-16T05:53:00;3.70;;;1.00;;
81903;SDS011;71370;-33.792;151.032;2023-07-16T05:54:07;5.60;;;0.90;;
81903;SDS011;71370;-33.792;151.032;2023-07-16T05:55:14;4.20;;;1.10;;
81903;SDS011;71370;-33.792;151.032;2023-07-16T05:56:21;4.80;;;1.40;;
81903;SDS011;71370;-33.792;151.032;2023-07-16T05:57:29;4.90;;;1.10;;
81903;SDS011;71370;-33.792;151.032;2023-07-16T05:58:36;5.40;;;1.20;;
81903;SDS011;71370;-33.792;151.032;2023-07-16T05:59:43;4.80;;;0.80;;
81903;SDS011;71370;-33.792;151.032;2023-07-16T06:00:50;4.60;;;1.20;;
81903;SDS011;71370;-33.792;151.032;2023-07-16T06:01:57;6.30;;;1.10;;
81903;SDS011;71370;-33.792;151.032;2023-07-16T06:03:04;4.80;;;1.10;;
81903;SDS011;71370;-33.792;151.032;2023-07-16T06:04:11;3.60;;;0.80;;
81903;SDS011;71370;-33.792;151.032;2023-07-16T06:05:19;4.40;;;1.00;;
81903;SDS011;71370;-33.792;151.032;2023-07-16T06:06:27;6.60;;;0.90;;
81903;SDS011;71370;-33.792;151.032;2023-07-16T06:07:34;5.30;;;1.50;;
81903;SDS011;71370;-33.792;151.032;2023-07-16T06:08:41;4.60;;;1.10;;
81903;SDS011;71370;-33.792;151.032;2023-07-16T06:09:49;5.00;;;1.00;;
81903;SDS011;71370;-33.792;151.032;2023-07-16T06:10:56;5.10;;;1.20;;
81903;SDS011;71370;-33.792;151.032;2023-07-16T06:12:03;5.00;;;1.40;;
81903;SDS011;71370;-33.792;151.032;2023-07-16T06:13:10;3.90;;;1.10;;
81903;SDS011;71370;-33.792;151.032;2023-07-16T06:14:17;4.80;;;1.20;;
81903;SDS011;71370;-33.792;151.032;2023-07-16T06:15:25;5.70;;;1.40;;
81903;SDS011;71370;-33.792;151.032;2023-07-16T06:16:32;6.20;;;1.10;;
81903;SDS011;71370;-33.792;151.032;2023-07-16T06:17:39;4.00;;;0.70;;
81903;SDS011;71370;-33.792;151.032;2023-07-16T06:18:46;3.10;;;1.00;;
81903;SDS011;71370;-33.792;151.032;2023-07-16T06:19:53;5.30;;;0.90;;
81903;SDS011;71370;-33.792;151.032;2023-07-16T06:21:00;6.10;;;1.20;;
81903;SDS011;71370;-33.792;151.032;2023-07-16T06:22:07;4.70;;;1.00;;
81903;SDS011;71370;-33.792;151.032;2023-07-16T06:23:17;4.20;;;1.10;;
81903;SDS011;71370;-33.792;151.032;2023-07-16T06:24:24;4.20;;;1.20;;
81903;SDS011;71370;-33.792;151.032;2023-07-16T06:25:31;4.30;;;1.00;;
81903;SDS011;71370;-33.792;151.032;2023-07-16T06:26:39;5.20;;;1.50;;
81903;SDS011;71370;-33.792;151.032;2023-07-16T06:27:46;5.20;;;1.00;;
81903;SDS011;71370;-33.792;151.032;2023-07-16T06:28:53;3.60;;;0.90;;
81903;SDS011;71370;-33.792;151.032;2023-07-16T06:30:00;7.10;;;1.30;;
81903;SDS011;71370;-33.792;151.032;2023-07-16T06:31:07;4.60;;;1.00;;
81903;SDS011;71370;-33.792;151.032;2023-07-16T06:32:14;4.70;;;0.90;;
81903;SDS011;71370;-33.792;151.032;2023-07-16T06:33:21;4.10;;;0.70;;
81903;SDS011;71370;-33.792;151.032;2023-07-16T06:34:29;4.00;;;1.20;;